Kaduna Airport

DNKA · Kaduna, 尼日利亚

罗盘
风向 的 风向 030° Kaduna Airport 5/23
风: 4 kt, 2 beaufort

4 kt

1 kt
改变
0 1.000 2.000 3.000 4.000 5.000
没有观察到明显的云
METAR DNKA 070200Z 03004KT 1000 DU NSC 19/00 Q1014 NOSIG

METAR Kaduna Airport - DNKA/KAD

Kaduna Airport是,尼日利亚中的中型机场。 该机场有一条跑道: 5/23. 该领域的国际民航组织标志是DNKA 它的国际航空运输协会代码是KAD.

这份报告是针对2022年12月7日 03:00, 当地时间在Kaduna Airport进行的。

机场观察

风向为030°,速度为4 kt。

可见度为1 km。

有没有观察到明显的云。 没有观察到天花板。

当前天气为尘土飞扬。 温度和风寒是19 °C。 海平面上的气压为1014 hPa (QNH)。

白天

今天,太阳从06:36升起,在18:07降落。 这适用于Kaduna Airport,世界夏令时可能有所不同。 当地时间与世界标准时间之间的时差为+1 小时。 当前,没有夏令时有效。

公司介绍

我们没有关于这个机场的公司信息。

体会

到Vliegles.nl去找飞行课程,跳伞和其他飞行体验。 浏览页面,了解Kaduna Airport附近所有可用的活动。 你也可以使用搜索功能来寻找你所在地附近的特定飞行课程、跳伞或其他飞行体验。

跑道

Id 标题 侧风 逆风 侧风 %
5/23 050°-230° 1 kt 4 kt 34 %

逆风成分最大的方向会被突出显示,并用于横风计算。 这并不一定意味着这个方向在使用。

乌云

- NSC 没有观察到明显的云

温度 & 天气

天气 尘土飞扬
温度 19 °C
露点 0 °C
相对湿度 28%
Kp-index 0 (0-9)

白天

日出
06:36 (2:47)
中午
12:22
日落
18:07

小工具

你想在你的网站上有一个关于Kaduna Airport的当前航空天气(METAR)的小部件吗?

显示HTML代码

我们和第三方通过cookies跟踪您在我们网站上的互联网行为。如果你继续,我们认为你同意我们的饼干政策